CheckWX is a tool to help pilots better visualize weather data.  It is not intended as a substitute for an official pre-flight weather briefing.

03:09:11 UTC

KROC METAR
Greater Rochester International Airport
Rochester, New York, USA
Current

15 mins ago

KROC 150254Z 00000KT 10SM BKN180 21/16 A3010 RMK AO2 SLP194 T02060156 53006
Observed
Jul-15 @ 02:54 UTC
Visibility
10 SM
Flight Rules
VFR
Cloud Levels
  • Broken at 18,000' AGL
Temperature
21°C / 70°F
Dewpoint
16°C / 61°F
Humidity
73%
Altimeter
30.1" Hg
Pressure
1019.32 hPa
Previous

1 hour ago

KROC 150154Z 00000KT 10SM FEW080 BKN180 22/14 A3010 RMK AO2 SLP191 T02170144
Observed
Jul-15 @ 01:54 UTC
Visibility
10 SM
Flight Rules
VFR
Cloud Levels
  • Few at 8,000' AGL
  • Broken at 18,000' AGL
Temperature
22°C / 72°F
Dewpoint
14°C / 57°F
Humidity
61%
Altimeter
30.1" Hg
Pressure
1019.32 hPa
Previous

2 hours ago

KROC 150054Z 35003KT 10SM FEW080 BKN180 24/13 A3009 RMK AO2 SLP188 T02390133
Observed
Jul-15 @ 00:54 UTC
Wind
  • 350° at 3 KTS
Visibility
10 SM
Flight Rules
VFR
Cloud Levels
  • Few at 8,000' AGL
  • Broken at 18,000' AGL
Temperature
24°C / 75°F
Dewpoint
13°C / 55°F
Humidity
50%
Altimeter
30.09" Hg
Pressure
1018.92 hPa